createdAt,value
2023-04-10T00:02:00.637Z,97531.56
2023-04-10T00:04:28.356Z,97532.75
2023-04-10T00:06:55.473Z,97529.53
2023-04-10T00:09:21.959Z,97545.72
2023-04-10T00:11:48.642Z,97542.94
2023-04-10T00:14:15.363Z,97534.06
2023-04-10T00:16:41.870Z,97533.63
2023-04-10T00:19:08.636Z,97531.63
2023-04-10T00:21:35.054Z,97526.41
2023-04-10T00:24:01.478Z,97525.38
2023-04-10T00:26:27.921Z,97508.44
2023-04-10T00:28:54.299Z,97519.13
2023-04-10T00:31:20.852Z,97518.69
2023-04-10T00:33:47.292Z,97524.75
2023-04-10T00:36:13.795Z,97515.69
2023-04-10T00:38:40.344Z,97514.06
2023-04-10T00:41:07.158Z,97512.88
2023-04-10T00:43:33.574Z,97523.16
2023-04-10T00:46:00.337Z,97514.28
2023-04-10T00:48:26.802Z,97512.69
2023-04-10T00:50:53.231Z,97503.19
2023-04-10T00:53:19.913Z,97502.94
2023-04-10T00:55:46.900Z,97505.78
2023-04-10T00:58:14.465Z,97501.38
2023-04-10T01:00:41.461Z,97500.38
2023-04-10T01:03:13.266Z,97494.50
2023-04-10T01:05:52.282Z,97500.53
2023-04-10T01:08:36.449Z,97501.56
2023-04-10T01:11:12.903Z,97500.38
2023-04-10T01:14:03.974Z,97504.59
2023-04-10T01:16:46.519Z,97509.44
2023-04-10T01:19:32.538Z,97505.63
2023-04-10T01:22:02.052Z,97512.88
2023-04-10T01:24:40.411Z,97503.78
2023-04-10T01:27:29.116Z,97512.44
2023-04-10T01:29:57.575Z,97507.44
2023-04-10T01:32:24.614Z,97503.81
2023-04-10T01:34:54.417Z,97515.84
2023-04-10T01:37:27.419Z,97509.44
2023-04-10T01:40:03.988Z,97513.44
2023-04-10T01:42:38.985Z,97507.00
2023-04-10T01:45:09.055Z,97502.19
2023-04-10T01:47:36.380Z,97495.31
2023-04-10T01:50:04.200Z,97498.69
2023-04-10T01:52:31.682Z,97494.44
2023-04-10T01:54:58.565Z,97489.63
2023-04-10T01:57:25.242Z,97488.56
2023-04-10T01:59:51.646Z,97502.03
2023-04-10T02:02:18.209Z,97487.50
2023-04-10T02:04:47.002Z,97486.97
2023-04-10T02:07:27.333Z,97481.81
2023-04-10T02:10:02.410Z,97485.75
2023-04-10T02:12:31.400Z,97482.63
2023-04-10T02:15:01.846Z,97473.84
2023-04-10T02:17:31.516Z,97479.00
2023-04-10T02:19:59.721Z,97491.72
2023-04-10T02:22:26.495Z,97490.28
2023-04-10T02:24:53.929Z,97497.47
2023-04-10T02:27:28.033Z,97494.00
2023-04-10T02:29:54.510Z,97491.94
2023-04-10T02:32:21.161Z,97491.53
2023-04-10T02:34:47.598Z,97489.78
2023-04-10T02:37:14.077Z,97486.41
2023-04-10T02:39:40.750Z,97490.75
2023-04-10T02:42:07.215Z,97487.50
2023-04-10T02:44:33.766Z,97485.84
2023-04-10T02:47:00.330Z,97491.34
2023-04-10T02:49:27.264Z,97493.34
2023-04-10T02:51:53.708Z,97495.94
2023-04-10T02:54:20.400Z,97505.75
2023-04-10T02:56:47.248Z,97497.69
2023-04-10T02:59:13.689Z,97506.56
2023-04-10T03:01:40.964Z,97502.72
2023-04-10T03:04:07.898Z,97502.38
2023-04-10T03:06:34.432Z,97501.31
2023-04-10T03:09:01.128Z,97508.16
2023-04-10T03:11:27.522Z,97501.09
2023-04-10T03:13:54.153Z,97506.47
2023-04-10T03:16:20.942Z,97504.03
2023-04-10T03:18:47.391Z,97502.78
2023-04-10T03:21:13.816Z,97505.47
2023-04-10T03:23:40.362Z,97493.16
2023-04-10T03:26:06.983Z,97496.19
2023-04-10T03:28:36.479Z,97490.88
2023-04-10T03:31:04.328Z,97489.56
2023-04-10T03:33:30.980Z,97491.19
2023-04-10T03:35:58.070Z,97487.72
2023-04-10T03:38:24.652Z,97484.00
2023-04-10T03:40:51.155Z,97484.19
2023-04-10T03:43:17.612Z,97475.56
2023-04-10T03:45:44.056Z,97473.13
2023-04-10T03:48:10.534Z,97470.88
2023-04-10T03:50:37.084Z,97469.25
2023-04-10T03:53:03.449Z,97467.28
2023-04-10T03:55:29.923Z,97468.91
2023-04-10T03:57:56.300Z,97466.94
2023-04-10T04:00:24.555Z,97472.13
2023-04-10T04:02:51.896Z,97471.16
2023-04-10T04:05:18.677Z,97467.38
2023-04-10T04:07:45.374Z,97469.00
2023-04-10T04:10:12.241Z,97460.22
2023-04-10T04:12:38.607Z,97461.94
2023-04-10T04:15:05.333Z,97459.94
2023-04-10T04:17:31.854Z,97454.75
2023-04-10T04:19:58.292Z,97454.13
2023-04-10T04:22:24.812Z,97453.75
2023-04-10T04:24:52.503Z,97449.53
2023-04-10T04:27:21.779Z,97444.69
2023-04-10T04:29:48.324Z,97446.31
2023-04-10T04:32:15.142Z,97448.94
2023-04-10T04:34:41.709Z,97443.88
2023-04-10T04:37:08.116Z,97447.31
2023-04-10T04:39:34.470Z,97447.91
2023-04-10T04:42:01.397Z,97445.59
2023-04-10T04:44:27.756Z,97440.66
2023-04-10T04:46:54.097Z,97449.09
2023-04-10T04:49:20.449Z,97444.00
2023-04-10T04:51:46.878Z,97446.69
2023-04-10T04:54:13.236Z,97440.78
2023-04-10T04:56:39.692Z,97451.72
2023-04-10T04:59:06.072Z,97447.41
2023-04-10T05:01:32.850Z,97451.00
2023-04-10T05:03:59.369Z,97446.78
2023-04-10T05:06:26.429Z,97450.09
2023-04-10T05:08:53.194Z,97457.81
2023-04-10T05:11:19.917Z,97454.66
2023-04-10T05:13:46.386Z,97456.88
2023-04-10T05:16:12.876Z,97455.50
2023-04-10T05:18:39.406Z,97452.31
2023-04-10T05:21:06.093Z,97458.84
2023-04-10T05:23:32.518Z,97460.41
2023-04-10T05:25:58.965Z,97464.88
2023-04-10T05:28:25.426Z,97472.22
2023-04-10T05:30:52.082Z,97475.69
2023-04-10T05:33:18.474Z,97479.47
2023-04-10T05:35:46.333Z,97476.56
2023-04-10T05:38:12.893Z,97479.38
2023-04-10T05:40:39.338Z,97471.84
2023-04-10T05:43:05.957Z,97479.19
2023-04-10T05:45:32.430Z,97478.41
2023-04-10T05:47:58.886Z,97485.19
2023-04-10T05:50:25.333Z,97484.28
2023-04-10T05:52:51.776Z,97490.53
2023-04-10T05:55:18.336Z,97489.53
2023-04-10T05:57:44.776Z,97481.56
2023-04-10T06:00:11.949Z,97479.91
2023-04-10T06:02:39.146Z,97491.84
2023-04-10T06:05:06.460Z,97483.78
2023-04-10T06:07:33.243Z,97492.31
2023-04-10T06:09:59.647Z,97483.94
2023-04-10T06:12:26.010Z,97488.69
2023-04-10T06:14:52.387Z,97483.25
2023-04-10T06:17:21.150Z,97480.47
2023-04-10T06:19:47.882Z,97483.75
2023-04-10T06:22:14.229Z,97474.09
2023-04-10T06:24:40.634Z,97481.75
2023-04-10T06:27:07.172Z,97482.19
2023-04-10T06:29:33.537Z,97482.66
2023-04-10T06:32:00.509Z,97479.09
2023-04-10T06:34:27.388Z,97470.25
2023-04-10T06:36:53.990Z,97477.75
2023-04-10T06:39:20.359Z,97481.56
2023-04-10T06:41:46.826Z,97477.16
2023-04-10T06:44:13.288Z,97472.72
2023-04-10T06:46:39.666Z,97475.09
2023-04-10T06:49:06.236Z,97472.22
2023-04-10T06:51:32.761Z,97472.50
2023-04-10T06:53:59.179Z,97469.94
2023-04-10T06:56:25.926Z,97465.97
2023-04-10T06:58:52.464Z,97461.47
2023-04-10T07:01:19.142Z,97465.69
2023-04-10T07:03:45.906Z,97456.31
2023-04-10T07:06:12.707Z,97453.81
2023-04-10T07:08:39.175Z,97465.78
2023-04-10T07:11:05.940Z,97459.56
2023-04-10T07:13:32.351Z,97458.66
2023-04-10T07:15:58.764Z,97470.03
2023-04-10T07:18:25.215Z,97453.16
2023-04-10T07:20:51.850Z,97451.09
2023-04-10T07:23:19.598Z,97453.00
2023-04-10T07:25:46.512Z,97454.75
2023-04-10T07:28:12.888Z,97455.97
2023-04-10T07:30:39.264Z,97454.03
2023-04-10T07:33:06.181Z,97465.28
2023-04-10T07:35:32.667Z,97459.13
2023-04-10T07:37:59.070Z,97457.81
2023-04-10T07:40:25.581Z,97460.44
2023-04-10T07:42:53.905Z,97454.94
2023-04-10T07:45:20.529Z,97459.09
2023-04-10T07:47:46.962Z,97459.75
2023-04-10T07:50:13.394Z,97460.16
2023-04-10T07:52:39.780Z,97465.75
2023-04-10T07:55:06.594Z,97467.88
2023-04-10T07:57:33.281Z,97464.84
2023-04-10T07:59:59.803Z,97470.91
2023-04-10T08:02:26.529Z,97459.22
2023-04-10T08:04:53.209Z,97454.53
2023-04-10T08:07:21.256Z,97451.25
2023-04-10T08:09:47.686Z,97446.66
2023-04-10T08:12:14.132Z,97448.81
2023-04-10T08:14:40.864Z,97452.47
2023-04-10T08:17:07.384Z,97452.31
2023-04-10T08:19:33.741Z,97444.34
2023-04-10T08:22:00.209Z,97445.06
2023-04-10T08:24:26.614Z,97444.69
2023-04-10T08:26:53.252Z,97443.63
2023-04-10T08:29:19.687Z,97447.47
2023-04-10T08:31:46.123Z,97445.88
2023-04-10T08:34:12.529Z,97444.81
2023-04-10T08:36:39.309Z,97436.44
2023-04-10T08:39:05.680Z,97439.84
2023-04-10T08:41:32.203Z,97444.66
2023-04-10T08:43:58.700Z,97447.66
2023-04-10T08:46:28.143Z,97437.69
2023-04-10T08:49:02.550Z,97438.25
2023-04-10T08:51:43.914Z,97431.69
2023-04-10T08:54:19.952Z,97430.19
2023-04-10T08:56:51.256Z,97435.06
2023-04-10T08:59:18.284Z,97427.31
2023-04-10T09:01:46.793Z,97434.66
2023-04-10T09:04:14.132Z,97430.28
2023-04-10T09:06:40.633Z,97432.06
2023-04-10T09:09:07.120Z,97429.88
2023-04-10T09:11:51.688Z,97434.34
2023-04-10T09:14:29.681Z,97425.66
2023-04-10T09:17:13.811Z,97425.50
2023-04-10T09:19:40.965Z,97422.72
2023-04-10T09:22:07.472Z,97424.25
2023-04-10T09:24:42.872Z,97415.88
2023-04-10T09:27:10.027Z,97414.69
2023-04-10T09:29:45.008Z,97415.59
2023-04-10T09:32:12.519Z,97411.03
2023-04-10T09:34:53.806Z,97411.75
2023-04-10T09:37:22.588Z,97411.00
2023-04-10T09:39:49.038Z,97399.41
2023-04-10T09:42:15.556Z,97382.38
2023-04-10T09:44:42.800Z,97381.88
2023-04-10T09:47:21.700Z,97379.19
2023-04-10T09:49:55.918Z,97374.63
2023-04-10T09:52:26.212Z,97377.34
2023-04-10T09:54:59.458Z,97371.94
2023-04-10T09:57:27.617Z,97361.75
2023-04-10T09:59:56.308Z,97350.00
2023-04-10T10:02:25.704Z,97351.22
2023-04-10T10:04:52.953Z,97355.84
2023-04-10T10:07:21.223Z,97339.03
2023-04-10T10:09:49.589Z,97349.00
2023-04-10T10:12:19.157Z,97349.25
2023-04-10T10:14:57.668Z,97335.84
2023-04-10T10:17:28.626Z,97339.19
2023-04-10T10:20:04.687Z,97335.63
2023-04-10T10:22:32.352Z,97334.00
2023-04-10T10:25:00.618Z,97319.53
2023-04-10T10:27:30.742Z,97318.34
2023-04-10T10:30:02.950Z,97312.69
2023-04-10T10:32:32.244Z,97305.41
2023-04-10T10:35:01.294Z,97302.06
2023-04-10T10:37:29.677Z,97302.44
2023-04-10T10:40:14.836Z,97301.59
2023-04-10T10:43:13.545Z,97292.84
2023-04-10T10:45:52.471Z,97281.34
2023-04-10T10:48:18.978Z,97277.00
2023-04-10T10:50:53.810Z,97275.91
2023-04-10T10:53:41.169Z,97269.22
2023-04-10T10:56:19.839Z,97273.41
2023-04-10T10:58:48.099Z,97256.88
2023-04-10T11:01:15.691Z,97273.09
2023-04-10T11:03:44.433Z,97275.66
2023-04-10T11:06:13.048Z,97271.63
2023-04-10T11:08:45.885Z,97271.03
2023-04-10T11:11:15.751Z,97259.97
2023-04-10T11:13:57.380Z,97260.38
2023-04-10T11:16:43.827Z,97263.69
2023-04-10T11:19:16.408Z,97259.28
2023-04-10T11:22:07.983Z,97245.69
2023-04-10T11:25:00.615Z,97248.56
2023-04-10T11:27:40.481Z,97239.56
2023-04-10T11:30:33.045Z,97244.22
2023-04-10T11:33:02.044Z,97243.78
2023-04-10T11:35:29.038Z,97233.81
2023-04-10T11:38:12.080Z,97228.38
2023-04-10T11:40:55.046Z,97230.69
2023-04-10T11:43:22.062Z,97232.47
2023-04-10T11:45:49.225Z,97226.31
2023-04-10T11:48:17.370Z,97224.53
2023-04-10T11:50:43.875Z,97235.56
2023-04-10T11:53:20.324Z,97234.06
2023-04-10T11:55:47.197Z,97230.09
2023-04-10T11:58:23.538Z,97225.94
2023-04-10T12:01:05.486Z,97219.78
2023-04-10T12:03:37.216Z,97211.22
2023-04-10T12:06:07.190Z,97202.19
2023-04-10T12:08:34.877Z,97207.91
2023-04-10T12:11:01.742Z,97204.44
2023-04-10T12:13:29.840Z,97206.56
2023-04-10T12:16:06.610Z,97205.84
2023-04-10T12:18:33.824Z,97195.13
2023-04-10T12:21:01.182Z,97193.75
2023-04-10T12:23:29.452Z,97185.13
2023-04-10T12:26:10.227Z,97182.41
2023-04-10T12:28:37.928Z,97188.56
2023-04-10T12:31:05.043Z,97178.00
2023-04-10T12:33:31.662Z,97185.16
2023-04-10T12:35:59.186Z,97186.06
2023-04-10T12:38:43.126Z,97176.69
2023-04-10T12:41:11.318Z,97177.03
2023-04-10T12:43:39.793Z,97183.63
2023-04-10T12:46:07.744Z,97172.03
2023-04-10T12:48:34.375Z,97163.72
2023-04-10T12:51:01.317Z,97159.94
2023-04-10T12:53:28.137Z,97145.50
2023-04-10T12:56:03.579Z,97150.09
2023-04-10T12:58:33.492Z,97156.78
2023-04-10T13:01:07.896Z,97144.09
2023-04-10T13:03:36.303Z,97134.19
2023-04-10T13:06:06.285Z,97145.06
2023-04-10T13:08:32.987Z,97143.41
2023-04-10T13:11:06.887Z,97142.31
2023-04-10T13:13:33.336Z,97140.16
2023-04-10T13:16:01.399Z,97128.09
2023-04-10T13:18:27.977Z,97133.31
2023-04-10T13:20:54.514Z,97132.72
2023-04-10T13:23:20.989Z,97139.38
2023-04-10T13:25:47.545Z,97133.19
2023-04-10T13:28:15.738Z,97126.06
2023-04-10T13:30:42.456Z,97117.50
2023-04-10T13:33:09.725Z,97119.25
2023-04-10T13:35:36.478Z,97118.53
2023-04-10T13:38:03.862Z,97115.19
2023-04-10T13:40:30.689Z,97110.88
2023-04-10T13:42:57.139Z,97119.00
2023-04-10T13:45:23.656Z,97113.41
2023-04-10T13:47:50.278Z,97111.72
2023-04-10T13:50:16.999Z,97106.09
2023-04-10T13:52:43.358Z,97098.78
2023-04-10T13:55:10.394Z,97089.97
2023-04-10T13:57:37.014Z,97087.06
2023-04-10T14:00:04.638Z,97087.72
2023-04-10T14:02:31.500Z,97084.38
2023-04-10T14:04:58.040Z,97078.78
2023-04-10T14:07:24.453Z,97086.69
2023-04-10T14:09:51.013Z,97084.00
2023-04-10T14:12:19.119Z,97071.75
2023-04-10T14:14:46.085Z,97074.28
2023-04-10T14:17:12.591Z,97074.00
2023-04-10T14:19:39.776Z,97060.38
2023-04-10T14:22:06.464Z,97057.66
2023-04-10T14:24:33.193Z,97053.56
2023-04-10T14:27:01.850Z,97047.88
2023-04-10T14:29:36.340Z,97044.34
2023-04-10T14:32:06.074Z,97043.59
2023-04-10T14:34:32.450Z,97042.53
2023-04-10T14:36:59.680Z,97043.00
2023-04-10T14:39:26.260Z,97041.16
2023-04-10T14:41:52.918Z,97037.81
2023-04-10T14:44:19.587Z,97045.47
2023-04-10T14:46:46.265Z,97042.41
2023-04-10T14:49:13.771Z,97050.25
2023-04-10T14:51:43.287Z,97035.72
2023-04-10T14:54:09.768Z,97030.41
2023-04-10T14:56:36.400Z,97026.72
2023-04-10T14:59:02.882Z,97024.13
2023-04-10T15:01:29.296Z,97030.44
2023-04-10T15:03:56.125Z,97024.75
2023-04-10T15:06:22.768Z,97016.69
2023-04-10T15:08:49.337Z,97013.03
2023-04-10T15:11:15.845Z,97015.97
2023-04-10T15:13:42.263Z,97008.94
2023-04-10T15:16:08.973Z,96995.19
2023-04-10T15:18:35.544Z,97002.03
2023-04-10T15:21:01.935Z,97000.09
2023-04-10T15:23:28.368Z,96997.00
2023-04-10T15:25:55.128Z,96996.25
2023-04-10T15:28:21.667Z,96995.47
2023-04-10T15:30:49.969Z,96989.84
2023-04-10T15:33:17.292Z,96980.50
2023-04-10T15:35:48.005Z,96979.44
2023-04-10T15:38:14.523Z,96984.41
2023-04-10T15:40:40.972Z,96985.22
2023-04-10T15:43:07.482Z,96985.47
2023-04-10T15:45:36.286Z,96974.00
2023-04-10T15:48:04.574Z,96968.38
2023-04-10T15:50:31.255Z,96970.53
2023-04-10T15:52:57.708Z,96965.22
2023-04-10T15:55:24.227Z,96960.84
2023-04-10T15:57:50.814Z,96959.25
2023-04-10T16:00:17.732Z,96954.97
2023-04-10T16:02:44.581Z,96951.63
2023-04-10T16:05:11.541Z,96952.16
2023-04-10T16:07:39.570Z,96944.66
2023-04-10T16:10:06.666Z,96947.72
2023-04-10T16:12:33.042Z,96938.69
2023-04-10T16:14:59.735Z,96938.09
2023-04-10T16:17:26.251Z,96937.53
2023-04-10T16:19:52.802Z,96936.91
2023-04-10T16:22:19.344Z,96928.59
2023-04-10T16:24:45.793Z,96934.84
2023-04-10T16:27:12.254Z,96929.81
2023-04-10T16:29:38.841Z,96937.34
2023-04-10T16:32:05.321Z,96923.25
2023-04-10T16:34:31.933Z,96925.34
2023-04-10T16:36:58.388Z,96931.00
2023-04-10T16:39:24.891Z,96930.78
2023-04-10T16:41:51.310Z,96928.78
2023-04-10T16:44:17.936Z,96921.63
2023-04-10T16:46:44.379Z,96922.81
2023-04-10T16:49:11.204Z,96900.94
2023-04-10T16:51:37.636Z,96891.09
2023-04-10T16:54:04.149Z,96899.63
2023-04-10T16:56:33.554Z,96894.44
2023-04-10T16:59:00.004Z,96886.31
2023-04-10T17:01:27.071Z,96881.59
2023-04-10T17:03:54.554Z,96882.28
2023-04-10T17:06:21.173Z,96886.41
2023-04-10T17:08:48.091Z,96882.75
2023-04-10T17:11:14.908Z,96882.22
2023-04-10T17:13:42.214Z,96880.38
2023-04-10T17:16:09.376Z,96887.63
2023-04-10T17:18:35.939Z,96876.97
2023-04-10T17:21:02.489Z,96887.19
2023-04-10T17:23:29.421Z,96882.56
2023-04-10T17:25:55.812Z,96877.34
2023-04-10T17:28:22.176Z,96878.06
2023-04-10T17:30:48.600Z,96872.38
2023-04-10T17:33:15.269Z,96875.31
2023-04-10T17:35:42.191Z,96883.97
2023-04-10T17:38:08.697Z,96880.34
2023-04-10T17:40:35.179Z,96872.41
2023-04-10T17:43:01.683Z,96876.50
2023-04-10T17:45:28.053Z,96874.91
2023-04-10T17:47:54.574Z,96878.19
2023-04-10T17:50:21.352Z,96876.41
2023-04-10T17:52:47.791Z,96872.78
2023-04-10T17:55:18.372Z,96868.97
2023-04-10T17:57:47.227Z,96859.25
2023-04-10T18:00:20.046Z,96857.44
2023-04-10T18:02:48.227Z,96860.63
2023-04-10T18:05:15.450Z,96852.97
2023-04-10T18:07:42.013Z,96848.44
2023-04-10T18:10:11.153Z,96844.72
2023-04-10T18:12:38.044Z,96843.22
2023-04-10T18:15:05.251Z,96847.53
2023-04-10T18:17:31.778Z,96845.50
2023-04-10T18:19:58.192Z,96822.97
2023-04-10T18:22:24.600Z,96821.66
2023-04-10T18:24:51.077Z,96819.25
2023-04-10T18:27:17.486Z,96810.31
2023-04-10T18:29:45.582Z,96810.88
2023-04-10T18:32:12.434Z,96818.13
2023-04-10T18:34:39.201Z,96815.81
2023-04-10T18:37:06.853Z,96824.63
2023-04-10T18:39:38.180Z,96832.66
2023-04-10T18:42:08.127Z,96842.81
2023-04-10T18:44:34.943Z,96843.38
2023-04-10T18:47:04.685Z,96849.81
2023-04-10T18:49:34.092Z,96856.72
2023-04-10T18:52:00.661Z,96859.97
2023-04-10T18:54:27.492Z,96864.47
2023-04-10T18:56:54.147Z,96879.63
2023-04-10T18:59:20.690Z,96881.50
2023-04-10T19:01:47.445Z,96879.63
2023-04-10T19:04:14.280Z,96874.78
2023-04-10T19:06:42.725Z,96869.44
2023-04-10T19:09:09.165Z,96874.78
2023-04-10T19:11:35.572Z,96876.91
2023-04-10T19:14:02.045Z,96868.41
2023-04-10T19:16:28.639Z,96866.81
2023-04-10T19:18:55.498Z,96864.19
2023-04-10T19:21:22.441Z,96863.66
2023-04-10T19:23:49.277Z,96873.78
2023-04-10T19:26:16.003Z,96866.31
2023-04-10T19:28:42.439Z,96864.19
2023-04-10T19:31:09.111Z,96860.50
2023-04-10T19:33:35.575Z,96854.16
2023-04-10T19:36:02.073Z,96850.97
2023-04-10T19:38:29.670Z,96865.91
2023-04-10T19:40:56.848Z,96871.22
2023-04-10T19:43:23.391Z,96877.63
2023-04-10T19:45:50.313Z,96884.28
2023-04-10T19:48:16.795Z,96885.66
2023-04-10T19:50:43.210Z,96888.34
2023-04-10T19:53:12.803Z,96887.81
2023-04-10T19:55:40.779Z,96888.91
2023-04-10T19:58:13.286Z,96882.00
2023-04-10T20:00:47.469Z,96869.25
2023-04-10T20:03:15.981Z,96878.25
2023-04-10T20:05:42.714Z,96885.44
2023-04-10T20:08:09.194Z,96883.84
2023-04-10T20:10:35.603Z,96889.94
2023-04-10T20:13:02.245Z,96896.47
2023-04-10T20:15:28.681Z,96904.44
2023-04-10T20:17:55.114Z,96903.59
2023-04-10T20:20:21.857Z,96892.69
2023-04-10T20:22:48.312Z,96887.88
2023-04-10T20:25:14.864Z,96882.06
2023-04-10T20:27:41.246Z,96881.25
2023-04-10T20:30:08.180Z,96873.81
2023-04-10T20:32:34.748Z,96875.69
2023-04-10T20:35:01.318Z,96878.94
2023-04-10T20:37:27.894Z,96870.47
2023-04-10T20:39:54.342Z,96870.44
2023-04-10T20:42:20.770Z,96864.59
2023-04-10T20:44:47.205Z,96871.47
2023-04-10T20:47:13.770Z,96861.41
2023-04-10T20:49:40.381Z,96863.00
2023-04-10T20:52:07.258Z,96864.84
2023-04-10T20:54:33.752Z,96850.53
2023-04-10T20:57:01.882Z,96849.22
2023-04-10T20:59:29.336Z,96851.09
2023-04-10T21:01:56.164Z,96846.03
2023-04-10T21:04:22.684Z,96843.91
2023-04-10T21:06:49.102Z,96831.41
2023-04-10T21:09:15.795Z,96835.13
2023-04-10T21:11:42.171Z,96827.69
2023-04-10T21:14:08.604Z,96825.53
2023-04-10T21:16:37.441Z,96815.22
2023-04-10T21:19:03.948Z,96809.84
2023-04-10T21:21:31.130Z,96814.09
2023-04-10T21:23:57.491Z,96811.97
2023-04-10T21:26:23.914Z,96818.41
2023-04-10T21:28:50.303Z,96814.66
2023-04-10T21:31:16.729Z,96809.34
2023-04-10T21:33:44.018Z,96795.00
2023-04-10T21:36:10.942Z,96799.75
2023-04-10T21:38:37.561Z,96797.91
2023-04-10T21:41:05.803Z,96798.72
2023-04-10T21:43:32.223Z,96809.91
2023-04-10T21:46:00.354Z,96809.34
2023-04-10T21:48:28.122Z,96814.09
2023-04-10T21:50:54.478Z,96809.34
2023-04-10T21:53:20.925Z,96810.94
2023-04-10T21:55:47.351Z,96811.97
2023-04-10T21:58:13.817Z,96814.88
2023-04-10T22:00:41.467Z,96813.03
2023-04-10T22:03:09.762Z,96814.66
2023-04-10T22:05:36.421Z,96812.81
2023-04-10T22:08:03.101Z,96792.59
2023-04-10T22:10:29.648Z,96784.34
2023-04-10T22:12:56.314Z,96773.72
2023-04-10T22:15:22.717Z,96771.63
2023-04-10T22:17:49.426Z,96761.56
2023-04-10T22:20:16.227Z,96767.94
2023-04-10T22:22:42.645Z,96756.28
2023-04-10T22:25:09.295Z,96753.13
2023-04-10T22:27:35.653Z,96735.66
2023-04-10T22:30:03.903Z,96734.03
2023-04-10T22:32:31.543Z,96734.03
2023-04-10T22:35:01.134Z,96727.13
2023-04-10T22:37:27.855Z,96721.81
2023-04-10T22:39:56.098Z,96716.72
2023-04-10T22:42:22.744Z,96705.84
2023-04-10T22:44:49.253Z,96696.88
2023-04-10T22:47:15.717Z,96696.06
2023-04-10T22:49:42.377Z,96679.91
2023-04-10T22:52:08.835Z,96670.88
2023-04-10T22:54:35.376Z,96674.06
2023-04-10T22:57:01.929Z,96662.66
2023-04-10T22:59:28.341Z,96668.53
2023-04-10T23:01:54.827Z,96663.47
2023-04-10T23:04:21.434Z,96648.13
2023-04-10T23:06:48.193Z,96633.25
2023-04-10T23:09:14.677Z,96629.53
2023-04-10T23:11:41.103Z,96623.69
2023-04-10T23:14:07.628Z,96624.78
2023-04-10T23:16:34.300Z,96638.00
2023-04-10T23:19:00.712Z,96647.56
2023-04-10T23:21:27.639Z,96665.81
2023-04-10T23:23:54.089Z,96670.34
2023-04-10T23:26:20.872Z,96668.22
2023-04-10T23:28:47.702Z,96661.88
2023-04-10T23:31:14.386Z,96657.09
2023-04-10T23:33:40.757Z,96669.84
2023-04-10T23:36:07.591Z,96665.53
2023-04-10T23:38:34.018Z,96667.63
2023-04-10T23:41:00.376Z,96667.06
2023-04-10T23:43:26.762Z,96669.69
2023-04-10T23:45:53.149Z,96668.66
2023-04-10T23:48:19.658Z,96671.91
2023-04-10T23:50:46.033Z,96666.50
2023-04-10T23:53:14.465Z,96654.56
2023-04-10T23:55:41.934Z,96651.09
2023-04-10T23:58:08.541Z,96651.09
